<?xml version="1.0" encoding="UTF-8" standalone="no" ?>
<gpx xmlns="http://www.topografix.com/GPX/1/1" xmlns:xsi="http://www.w3.org/2001/XMLSchema-instance" xsi:schemaLocation="http://www.topografix.com/GPX/1/1 http://www.topografix.com/GPX/1/1/gpx.xsd" version="1.1" creator="VisuGPX - https://www.visugpx.com">
  <metadata>
    <name>St Jean de Moirans - Le Mercuel via Le Saix, OR14955259</name>
    <desc><![CDATA[7.2km, 220m
Raide à Le Saix, 1km de D12
OR14955259]]></desc>
  </metadata>
  <trk>
    <name><![CDATA[14955259-St Jean de Moirans - Le Mercuel via Le Saix]]></name>
    <trkseg>
      <trkpt lat="45.34344" lon="5.58279">
        <ele>235</ele>
        <time>2022-06-13T12:11:16Z</time>
      </trkpt>
      <trkpt lat="45.34333" lon="5.58287">
        <ele>234</ele>
        <time>2022-06-13T12:11:18Z</time>
      </trkpt>
      <trkpt lat="45.34291" lon="5.58211">
        <ele>232</ele>
        <time>2022-06-13T12:11:30Z</time>
      </trkpt>
      <trkpt lat="45.34271" lon="5.58178">
        <ele>232</ele>
        <time>2022-06-13T12:11:36Z</time>
      </trkpt>
      <trkpt lat="45.34232" lon="5.58175">
        <ele>229</ele>
        <time>2022-06-13T12:11:43Z</time>
      </trkpt>
      <trkpt lat="45.34211" lon="5.58162">
        <ele>229</ele>
        <time>2022-06-13T12:11:47Z</time>
      </trkpt>
      <trkpt lat="45.34191" lon="5.58156">
        <ele>229</ele>
        <time>2022-06-13T12:11:50Z</time>
      </trkpt>
      <trkpt lat="45.34153" lon="5.58135">
        <ele>229</ele>
        <time>2022-06-13T12:11:58Z</time>
      </trkpt>
      <trkpt lat="45.34112" lon="5.58097">
        <ele>230</ele>
        <time>2022-06-13T12:12:06Z</time>
      </trkpt>
      <trkpt lat="45.34098" lon="5.58061">
        <ele>230</ele>
        <time>2022-06-13T12:12:12Z</time>
      </trkpt>
      <trkpt lat="45.34086" lon="5.5804">
        <ele>230</ele>
        <time>2022-06-13T12:12:15Z</time>
      </trkpt>
      <trkpt lat="45.34079" lon="5.58009">
        <ele>230</ele>
        <time>2022-06-13T12:12:19Z</time>
      </trkpt>
      <trkpt lat="45.34112" lon="5.57939">
        <ele>231</ele>
        <time>2022-06-13T12:12:30Z</time>
      </trkpt>
      <trkpt lat="45.34144" lon="5.57846">
        <ele>234</ele>
        <time>2022-06-13T12:12:42Z</time>
      </trkpt>
      <trkpt lat="45.34167" lon="5.57802">
        <ele>237</ele>
        <time>2022-06-13T12:12:49Z</time>
      </trkpt>
      <trkpt lat="45.34186" lon="5.5776">
        <ele>241</ele>
        <time>2022-06-13T12:12:56Z</time>
      </trkpt>
      <trkpt lat="45.34243" lon="5.57686">
        <ele>253</ele>
        <time>2022-06-13T12:13:09Z</time>
      </trkpt>
      <trkpt lat="45.34267" lon="5.57634">
        <ele>260</ele>
        <time>2022-06-13T12:13:17Z</time>
      </trkpt>
      <trkpt lat="45.34282" lon="5.57576">
        <ele>264</ele>
        <time>2022-06-13T12:13:25Z</time>
      </trkpt>
      <trkpt lat="45.34285" lon="5.5751">
        <ele>264</ele>
        <time>2022-06-13T12:13:33Z</time>
      </trkpt>
      <trkpt lat="45.3429" lon="5.57465">
        <ele>263</ele>
        <time>2022-06-13T12:13:39Z</time>
      </trkpt>
      <trkpt lat="45.34301" lon="5.57435">
        <ele>262</ele>
        <time>2022-06-13T12:13:43Z</time>
      </trkpt>
      <trkpt lat="45.34325" lon="5.57417">
        <ele>259</ele>
        <time>2022-06-13T12:13:48Z</time>
      </trkpt>
      <trkpt lat="45.34352" lon="5.57425">
        <ele>257</ele>
        <time>2022-06-13T12:13:53Z</time>
      </trkpt>
      <trkpt lat="45.34398" lon="5.57446">
        <ele>256</ele>
        <time>2022-06-13T12:14:01Z</time>
      </trkpt>
      <trkpt lat="45.34412" lon="5.57458">
        <ele>258</ele>
        <time>2022-06-13T12:14:04Z</time>
      </trkpt>
      <trkpt lat="45.34431" lon="5.5749">
        <ele>262</ele>
        <time>2022-06-13T12:14:09Z</time>
      </trkpt>
      <trkpt lat="45.34439" lon="5.57494">
        <ele>261</ele>
        <time>2022-06-13T12:14:11Z</time>
      </trkpt>
      <trkpt lat="45.34451" lon="5.57488">
        <ele>257</ele>
        <time>2022-06-13T12:14:13Z</time>
      </trkpt>
      <trkpt lat="45.34454" lon="5.57484">
        <ele>256</ele>
        <time>2022-06-13T12:14:14Z</time>
      </trkpt>
      <trkpt lat="45.34461" lon="5.57471">
        <ele>253</ele>
        <time>2022-06-13T12:14:16Z</time>
      </trkpt>
      <trkpt lat="45.34465" lon="5.57463">
        <ele>251</ele>
        <time>2022-06-13T12:14:17Z</time>
      </trkpt>
      <trkpt lat="45.34466" lon="5.57454">
        <ele>250</ele>
        <time>2022-06-13T12:14:18Z</time>
      </trkpt>
      <trkpt lat="45.34453" lon="5.57407">
        <ele>246</ele>
        <time>2022-06-13T12:14:25Z</time>
      </trkpt>
      <trkpt lat="45.34433" lon="5.57402">
        <ele>246</ele>
        <time>2022-06-13T12:14:28Z</time>
      </trkpt>
      <trkpt lat="45.34422" lon="5.57396">
        <ele>246</ele>
        <time>2022-06-13T12:14:30Z</time>
      </trkpt>
      <trkpt lat="45.34404" lon="5.57389">
        <ele>247</ele>
        <time>2022-06-13T12:14:34Z</time>
      </trkpt>
      <trkpt lat="45.34375" lon="5.57365">
        <ele>248</ele>
        <time>2022-06-13T12:14:40Z</time>
      </trkpt>
      <trkpt lat="45.34345" lon="5.57327">
        <ele>247</ele>
        <time>2022-06-13T12:14:47Z</time>
      </trkpt>
      <trkpt lat="45.34288" lon="5.57248">
        <ele>247</ele>
        <time>2022-06-13T12:15:01Z</time>
      </trkpt>
      <trkpt lat="45.34272" lon="5.57223">
        <ele>246</ele>
        <time>2022-06-13T12:15:05Z</time>
      </trkpt>
      <trkpt lat="45.34262" lon="5.57196">
        <ele>244</ele>
        <time>2022-06-13T12:15:09Z</time>
      </trkpt>
      <trkpt lat="45.34174" lon="5.57004">
        <ele>240</ele>
        <time>2022-06-13T12:15:38Z</time>
      </trkpt>
      <trkpt lat="45.34156" lon="5.56953">
        <ele>239</ele>
        <time>2022-06-13T12:15:45Z</time>
      </trkpt>
      <trkpt lat="45.34126" lon="5.5689">
        <ele>238</ele>
        <time>2022-06-13T12:15:54Z</time>
      </trkpt>
      <trkpt lat="45.34105" lon="5.56854">
        <ele>236</ele>
        <time>2022-06-13T12:16:00Z</time>
      </trkpt>
      <trkpt lat="45.34076" lon="5.56788">
        <ele>235</ele>
        <time>2022-06-13T12:16:10Z</time>
      </trkpt>
      <trkpt lat="45.34096" lon="5.56755">
        <ele>232</ele>
        <time>2022-06-13T12:16:15Z</time>
      </trkpt>
      <trkpt lat="45.34106" lon="5.56732">
        <ele>231</ele>
        <time>2022-06-13T12:16:19Z</time>
      </trkpt>
      <trkpt lat="45.34136" lon="5.56698">
        <ele>230</ele>
        <time>2022-06-13T12:16:26Z</time>
      </trkpt>
      <trkpt lat="45.34186" lon="5.56645">
        <ele>234</ele>
        <time>2022-06-13T12:16:37Z</time>
      </trkpt>
      <trkpt lat="45.34192" lon="5.56637">
        <ele>235</ele>
        <time>2022-06-13T12:16:38Z</time>
      </trkpt>
      <trkpt lat="45.34207" lon="5.56619">
        <ele>237</ele>
        <time>2022-06-13T12:16:42Z</time>
      </trkpt>
      <trkpt lat="45.34189" lon="5.56588">
        <ele>237</ele>
        <time>2022-06-13T12:16:47Z</time>
      </trkpt>
      <trkpt lat="45.34203" lon="5.56584">
        <ele>238</ele>
        <time>2022-06-13T12:16:49Z</time>
      </trkpt>
      <trkpt lat="45.34214" lon="5.56585">
        <ele>240</ele>
        <time>2022-06-13T12:16:51Z</time>
      </trkpt>
      <trkpt lat="45.34221" lon="5.56572">
        <ele>242</ele>
        <time>2022-06-13T12:16:53Z</time>
      </trkpt>
      <trkpt lat="45.34221" lon="5.56558">
        <ele>243</ele>
        <time>2022-06-13T12:16:55Z</time>
      </trkpt>
      <trkpt lat="45.3421" lon="5.56509">
        <ele>246</ele>
        <time>2022-06-13T12:17:01Z</time>
      </trkpt>
      <trkpt lat="45.34206" lon="5.56473">
        <ele>249</ele>
        <time>2022-06-13T12:17:06Z</time>
      </trkpt>
      <trkpt lat="45.34208" lon="5.56454">
        <ele>252</ele>
        <time>2022-06-13T12:17:08Z</time>
      </trkpt>
      <trkpt lat="45.34215" lon="5.5644">
        <ele>255</ele>
        <time>2022-06-13T12:17:11Z</time>
      </trkpt>
      <trkpt lat="45.34224" lon="5.56429">
        <ele>259</ele>
        <time>2022-06-13T12:17:13Z</time>
      </trkpt>
      <trkpt lat="45.34245" lon="5.56412">
        <ele>265</ele>
        <time>2022-06-13T12:17:17Z</time>
      </trkpt>
      <trkpt lat="45.34271" lon="5.56406">
        <ele>271</ele>
        <time>2022-06-13T12:17:22Z</time>
      </trkpt>
      <trkpt lat="45.3429" lon="5.56406">
        <ele>274</ele>
        <time>2022-06-13T12:17:25Z</time>
      </trkpt>
      <trkpt lat="45.34315" lon="5.56414">
        <ele>278</ele>
        <time>2022-06-13T12:17:30Z</time>
      </trkpt>
      <trkpt lat="45.34339" lon="5.56413">
        <ele>281</ele>
        <time>2022-06-13T12:17:34Z</time>
      </trkpt>
      <trkpt lat="45.34346" lon="5.564">
        <ele>281</ele>
        <time>2022-06-13T12:17:36Z</time>
      </trkpt>
      <trkpt lat="45.3436" lon="5.56379">
        <ele>281</ele>
        <time>2022-06-13T12:17:40Z</time>
      </trkpt>
      <trkpt lat="45.34379" lon="5.56361">
        <ele>281</ele>
        <time>2022-06-13T12:17:44Z</time>
      </trkpt>
      <trkpt lat="45.3437" lon="5.56346">
        <ele>281</ele>
        <time>2022-06-13T12:17:46Z</time>
      </trkpt>
      <trkpt lat="45.34334" lon="5.563">
        <ele>278</ele>
        <time>2022-06-13T12:17:55Z</time>
      </trkpt>
      <trkpt lat="45.34324" lon="5.56282">
        <ele>278</ele>
        <time>2022-06-13T12:17:58Z</time>
      </trkpt>
      <trkpt lat="45.34331" lon="5.56269">
        <ele>278</ele>
        <time>2022-06-13T12:18:00Z</time>
      </trkpt>
      <trkpt lat="45.34356" lon="5.56184">
        <ele>282</ele>
        <time>2022-06-13T12:18:11Z</time>
      </trkpt>
      <trkpt lat="45.34391" lon="5.56073">
        <ele>288</ele>
        <time>2022-06-13T12:18:26Z</time>
      </trkpt>
      <trkpt lat="45.34399" lon="5.56041">
        <ele>292</ele>
        <time>2022-06-13T12:18:31Z</time>
      </trkpt>
      <trkpt lat="45.34398" lon="5.56024">
        <ele>294</ele>
        <time>2022-06-13T12:18:33Z</time>
      </trkpt>
      <trkpt lat="45.34384" lon="5.5595">
        <ele>299</ele>
        <time>2022-06-13T12:18:42Z</time>
      </trkpt>
      <trkpt lat="45.34346" lon="5.55791">
        <ele>307</ele>
        <time>2022-06-13T12:19:03Z</time>
      </trkpt>
      <trkpt lat="45.34346" lon="5.55779">
        <ele>309</ele>
        <time>2022-06-13T12:19:05Z</time>
      </trkpt>
      <trkpt lat="45.34348" lon="5.55771">
        <ele>310</ele>
        <time>2022-06-13T12:19:06Z</time>
      </trkpt>
      <trkpt lat="45.34354" lon="5.55765">
        <ele>311</ele>
        <time>2022-06-13T12:19:07Z</time>
      </trkpt>
      <trkpt lat="45.34367" lon="5.55758">
        <ele>313</ele>
        <time>2022-06-13T12:19:10Z</time>
      </trkpt>
      <trkpt lat="45.34391" lon="5.55752">
        <ele>315</ele>
        <time>2022-06-13T12:19:14Z</time>
      </trkpt>
      <trkpt lat="45.34444" lon="5.55732">
        <ele>318</ele>
        <time>2022-06-13T12:19:24Z</time>
      </trkpt>
      <trkpt lat="45.34487" lon="5.55711">
        <ele>320</ele>
        <time>2022-06-13T12:19:32Z</time>
      </trkpt>
      <trkpt lat="45.3452" lon="5.55703">
        <ele>322</ele>
        <time>2022-06-13T12:19:38Z</time>
      </trkpt>
      <trkpt lat="45.34568" lon="5.55668">
        <ele>327</ele>
        <time>2022-06-13T12:19:47Z</time>
      </trkpt>
      <trkpt lat="45.34589" lon="5.5565">
        <ele>329</ele>
        <time>2022-06-13T12:19:52Z</time>
      </trkpt>
      <trkpt lat="45.34593" lon="5.55645">
        <ele>329</ele>
        <time>2022-06-13T12:19:53Z</time>
      </trkpt>
      <trkpt lat="45.34595" lon="5.55637">
        <ele>329</ele>
        <time>2022-06-13T12:19:54Z</time>
      </trkpt>
      <trkpt lat="45.34594" lon="5.55629">
        <ele>330</ele>
        <time>2022-06-13T12:19:55Z</time>
      </trkpt>
      <trkpt lat="45.34573" lon="5.55606">
        <ele>329</ele>
        <time>2022-06-13T12:19:59Z</time>
      </trkpt>
      <trkpt lat="45.34571" lon="5.55598">
        <ele>329</ele>
        <time>2022-06-13T12:20:01Z</time>
      </trkpt>
      <trkpt lat="45.34572" lon="5.55593">
        <ele>329</ele>
        <time>2022-06-13T12:20:01Z</time>
      </trkpt>
      <trkpt lat="45.34603" lon="5.55604">
        <ele>331</ele>
        <time>2022-06-13T12:20:07Z</time>
      </trkpt>
      <trkpt lat="45.34652" lon="5.55622">
        <ele>333</ele>
        <time>2022-06-13T12:20:16Z</time>
      </trkpt>
      <trkpt lat="45.3467" lon="5.55628">
        <ele>334</ele>
        <time>2022-06-13T12:20:19Z</time>
      </trkpt>
      <trkpt lat="45.34689" lon="5.55653">
        <ele>337</ele>
        <time>2022-06-13T12:20:24Z</time>
      </trkpt>
      <trkpt lat="45.34739" lon="5.55739">
        <ele>339</ele>
        <time>2022-06-13T12:20:38Z</time>
      </trkpt>
      <trkpt lat="45.3483" lon="5.55797">
        <ele>348</ele>
        <time>2022-06-13T12:20:55Z</time>
      </trkpt>
      <trkpt lat="45.34848" lon="5.55799">
        <ele>348</ele>
        <time>2022-06-13T12:20:59Z</time>
      </trkpt>
      <trkpt lat="45.34869" lon="5.55815">
        <ele>348</ele>
        <time>2022-06-13T12:21:03Z</time>
      </trkpt>
      <trkpt lat="45.34909" lon="5.55845">
        <ele>345</ele>
        <time>2022-06-13T12:21:11Z</time>
      </trkpt>
      <trkpt lat="45.3494" lon="5.55885">
        <ele>341</ele>
        <time>2022-06-13T12:21:18Z</time>
      </trkpt>
      <trkpt lat="45.34981" lon="5.55952">
        <ele>335</ele>
        <time>2022-06-13T12:21:29Z</time>
      </trkpt>
      <trkpt lat="45.35019" lon="5.55975">
        <ele>333</ele>
        <time>2022-06-13T12:21:37Z</time>
      </trkpt>
      <trkpt lat="45.35033" lon="5.5598">
        <ele>333</ele>
        <time>2022-06-13T12:21:39Z</time>
      </trkpt>
      <trkpt lat="45.35042" lon="5.55946">
        <ele>331</ele>
        <time>2022-06-13T12:21:44Z</time>
      </trkpt>
      <trkpt lat="45.35064" lon="5.55887">
        <ele>328</ele>
        <time>2022-06-13T12:21:52Z</time>
      </trkpt>
      <trkpt lat="45.35092" lon="5.55843">
        <ele>325</ele>
        <time>2022-06-13T12:22:00Z</time>
      </trkpt>
      <trkpt lat="45.35144" lon="5.55774">
        <ele>323</ele>
        <time>2022-06-13T12:22:12Z</time>
      </trkpt>
      <trkpt lat="45.35162" lon="5.55721">
        <ele>323</ele>
        <time>2022-06-13T12:22:20Z</time>
      </trkpt>
      <trkpt lat="45.35178" lon="5.55631">
        <ele>325</ele>
        <time>2022-06-13T12:22:31Z</time>
      </trkpt>
      <trkpt lat="45.35238" lon="5.55464">
        <ele>338</ele>
        <time>2022-06-13T12:22:55Z</time>
      </trkpt>
      <trkpt lat="45.3526" lon="5.55412">
        <ele>343</ele>
        <time>2022-06-13T12:23:02Z</time>
      </trkpt>
      <trkpt lat="45.3531" lon="5.55304">
        <ele>352</ele>
        <time>2022-06-13T12:23:19Z</time>
      </trkpt>
      <trkpt lat="45.35323" lon="5.55299">
        <ele>353</ele>
        <time>2022-06-13T12:23:21Z</time>
      </trkpt>
      <trkpt lat="45.35384" lon="5.55295">
        <ele>356</ele>
        <time>2022-06-13T12:23:32Z</time>
      </trkpt>
      <trkpt lat="45.35409" lon="5.55286">
        <ele>357</ele>
        <time>2022-06-13T12:23:36Z</time>
      </trkpt>
      <trkpt lat="45.35427" lon="5.55273">
        <ele>358</ele>
        <time>2022-06-13T12:23:40Z</time>
      </trkpt>
      <trkpt lat="45.35543" lon="5.55157">
        <ele>365</ele>
        <time>2022-06-13T12:24:05Z</time>
      </trkpt>
      <trkpt lat="45.35558" lon="5.5515">
        <ele>366</ele>
        <time>2022-06-13T12:24:08Z</time>
      </trkpt>
      <trkpt lat="45.35558" lon="5.55122">
        <ele>367</ele>
        <time>2022-06-13T12:24:12Z</time>
      </trkpt>
      <trkpt lat="45.35563" lon="5.55068">
        <ele>370</ele>
        <time>2022-06-13T12:24:18Z</time>
      </trkpt>
      <trkpt lat="45.35562" lon="5.55038">
        <ele>370</ele>
        <time>2022-06-13T12:24:22Z</time>
      </trkpt>
      <trkpt lat="45.35557" lon="5.55011">
        <ele>371</ele>
        <time>2022-06-13T12:24:26Z</time>
      </trkpt>
      <trkpt lat="45.35557" lon="5.55003">
        <ele>371</ele>
        <time>2022-06-13T12:24:27Z</time>
      </trkpt>
      <trkpt lat="45.35564" lon="5.54987">
        <ele>372</ele>
        <time>2022-06-13T12:24:29Z</time>
      </trkpt>
      <trkpt lat="45.35553" lon="5.54966">
        <ele>372</ele>
        <time>2022-06-13T12:24:32Z</time>
      </trkpt>
      <trkpt lat="45.35544" lon="5.54937">
        <ele>372</ele>
        <time>2022-06-13T12:24:36Z</time>
      </trkpt>
      <trkpt lat="45.3552" lon="5.54881">
        <ele>373</ele>
        <time>2022-06-13T12:24:44Z</time>
      </trkpt>
      <trkpt lat="45.35475" lon="5.54794">
        <ele>373</ele>
        <time>2022-06-13T12:24:58Z</time>
      </trkpt>
      <trkpt lat="45.35455" lon="5.54693">
        <ele>372</ele>
        <time>2022-06-13T12:25:11Z</time>
      </trkpt>
      <trkpt lat="45.35443" lon="5.54606">
        <ele>375</ele>
        <time>2022-06-13T12:25:22Z</time>
      </trkpt>
      <trkpt lat="45.35434" lon="5.54473">
        <ele>377</ele>
        <time>2022-06-13T12:25:39Z</time>
      </trkpt>
      <trkpt lat="45.35428" lon="5.54421">
        <ele>377</ele>
        <time>2022-06-13T12:25:45Z</time>
      </trkpt>
      <trkpt lat="45.35402" lon="5.54283">
        <ele>381</ele>
        <time>2022-06-13T12:26:03Z</time>
      </trkpt>
      <trkpt lat="45.35389" lon="5.54228">
        <ele>382</ele>
        <time>2022-06-13T12:26:11Z</time>
      </trkpt>
      <trkpt lat="45.35382" lon="5.54203">
        <ele>382</ele>
        <time>2022-06-13T12:26:14Z</time>
      </trkpt>
      <trkpt lat="45.3534" lon="5.5412">
        <ele>381</ele>
        <time>2022-06-13T12:26:27Z</time>
      </trkpt>
      <trkpt lat="45.35333" lon="5.54093">
        <ele>381</ele>
        <time>2022-06-13T12:26:30Z</time>
      </trkpt>
      <trkpt lat="45.35319" lon="5.54025">
        <ele>382</ele>
        <time>2022-06-13T12:26:39Z</time>
      </trkpt>
      <trkpt lat="45.35293" lon="5.53959">
        <ele>382</ele>
        <time>2022-06-13T12:26:49Z</time>
      </trkpt>
      <trkpt lat="45.35291" lon="5.53945">
        <ele>382</ele>
        <time>2022-06-13T12:26:50Z</time>
      </trkpt>
      <trkpt lat="45.35291" lon="5.53924">
        <ele>383</ele>
        <time>2022-06-13T12:26:53Z</time>
      </trkpt>
      <trkpt lat="45.35299" lon="5.53872">
        <ele>384</ele>
        <time>2022-06-13T12:27:00Z</time>
      </trkpt>
      <trkpt lat="45.353" lon="5.53861">
        <ele>385</ele>
        <time>2022-06-13T12:27:01Z</time>
      </trkpt>
      <trkpt lat="45.35298" lon="5.53841">
        <ele>385</ele>
        <time>2022-06-13T12:27:04Z</time>
      </trkpt>
      <trkpt lat="45.35296" lon="5.5383">
        <ele>385</ele>
        <time>2022-06-13T12:27:05Z</time>
      </trkpt>
      <trkpt lat="45.35327" lon="5.53769">
        <ele>387</ele>
        <time>2022-06-13T12:27:14Z</time>
      </trkpt>
      <trkpt lat="45.35345" lon="5.53711">
        <ele>388</ele>
        <time>2022-06-13T12:27:22Z</time>
      </trkpt>
      <trkpt lat="45.35351" lon="5.53689">
        <ele>388</ele>
        <time>2022-06-13T12:27:25Z</time>
      </trkpt>
      <trkpt lat="45.35359" lon="5.53662">
        <ele>389</ele>
        <time>2022-06-13T12:27:29Z</time>
      </trkpt>
      <trkpt lat="45.35373" lon="5.53633">
        <ele>389</ele>
        <time>2022-06-13T12:27:33Z</time>
      </trkpt>
      <trkpt lat="45.35439" lon="5.53594">
        <ele>393</ele>
        <time>2022-06-13T12:27:46Z</time>
      </trkpt>
      <trkpt lat="45.35469" lon="5.53571">
        <ele>395</ele>
        <time>2022-06-13T12:27:52Z</time>
      </trkpt>
      <trkpt lat="45.35443" lon="5.5349">
        <ele>396</ele>
        <time>2022-06-13T12:28:03Z</time>
      </trkpt>
      <trkpt lat="45.35435" lon="5.53456">
        <ele>395</ele>
        <time>2022-06-13T12:28:08Z</time>
      </trkpt>
      <trkpt lat="45.35425" lon="5.5339">
        <ele>392</ele>
        <time>2022-06-13T12:28:16Z</time>
      </trkpt>
      <trkpt lat="45.35431" lon="5.53298">
        <ele>391</ele>
        <time>2022-06-13T12:28:28Z</time>
      </trkpt>
      <trkpt lat="45.35446" lon="5.53229">
        <ele>393</ele>
        <time>2022-06-13T12:28:37Z</time>
      </trkpt>
      <trkpt lat="45.35453" lon="5.53166">
        <ele>391</ele>
        <time>2022-06-13T12:28:45Z</time>
      </trkpt>
      <trkpt lat="45.35458" lon="5.5309">
        <ele>390</ele>
        <time>2022-06-13T12:28:54Z</time>
      </trkpt>
      <trkpt lat="45.35469" lon="5.53036">
        <ele>390</ele>
        <time>2022-06-13T12:29:01Z</time>
      </trkpt>
      <trkpt lat="45.35472" lon="5.52989">
        <ele>389</ele>
        <time>2022-06-13T12:29:07Z</time>
      </trkpt>
      <trkpt lat="45.35478" lon="5.52948">
        <ele>387</ele>
        <time>2022-06-13T12:29:12Z</time>
      </trkpt>
      <trkpt lat="45.35496" lon="5.52908">
        <ele>386</ele>
        <time>2022-06-13T12:29:18Z</time>
      </trkpt>
      <trkpt lat="45.35522" lon="5.52876">
        <ele>388</ele>
        <time>2022-06-13T12:29:25Z</time>
      </trkpt>
      <trkpt lat="45.35529" lon="5.52858">
        <ele>388</ele>
        <time>2022-06-13T12:29:27Z</time>
      </trkpt>
      <trkpt lat="45.35534" lon="5.52837">
        <ele>388</ele>
        <time>2022-06-13T12:29:30Z</time>
      </trkpt>
      <trkpt lat="45.35542" lon="5.52821">
        <ele>388</ele>
        <time>2022-06-13T12:29:32Z</time>
      </trkpt>
      <trkpt lat="45.3556" lon="5.52812">
        <ele>390</ele>
        <time>2022-06-13T12:29:36Z</time>
      </trkpt>
      <trkpt lat="45.35585" lon="5.52811">
        <ele>394</ele>
        <time>2022-06-13T12:29:40Z</time>
      </trkpt>
      <trkpt lat="45.35604" lon="5.52803">
        <ele>395</ele>
        <time>2022-06-13T12:29:44Z</time>
      </trkpt>
      <trkpt lat="45.35624" lon="5.5279">
        <ele>396</ele>
        <time>2022-06-13T12:29:48Z</time>
      </trkpt>
      <trkpt lat="45.35634" lon="5.52786">
        <ele>397</ele>
        <time>2022-06-13T12:29:49Z</time>
      </trkpt>
      <trkpt lat="45.35657" lon="5.52772">
        <ele>398</ele>
        <time>2022-06-13T12:29:54Z</time>
      </trkpt>
      <trkpt lat="45.35731" lon="5.5272">
        <ele>400</ele>
        <time>2022-06-13T12:30:09Z</time>
      </trkpt>
      <trkpt lat="45.35749" lon="5.52699">
        <ele>400</ele>
        <time>2022-06-13T12:30:13Z</time>
      </trkpt>
      <trkpt lat="45.35762" lon="5.52675">
        <ele>400</ele>
        <time>2022-06-13T12:30:17Z</time>
      </trkpt>
      <trkpt lat="45.35767" lon="5.5268">
        <ele>400</ele>
        <time>2022-06-13T12:30:18Z</time>
      </trkpt>
      <trkpt lat="45.35802" lon="5.52694">
        <ele>402</ele>
        <time>2022-06-13T12:30:24Z</time>
      </trkpt>
      <trkpt lat="45.35809" lon="5.52705">
        <ele>403</ele>
        <time>2022-06-13T12:30:26Z</time>
      </trkpt>
      <trkpt lat="45.35818" lon="5.52753">
        <ele>405</ele>
        <time>2022-06-13T12:30:32Z</time>
      </trkpt>
    </trkseg>
  </trk>
</gpx>